Time;durP1;ratioP1;P1;durP2;ratioP2;P2;SDS_P1;SDS_P2;PMS_P1;PMS_P2;Temp;Humidity;BMP_temperature;BMP_pressure;BME280_temperature;BME280_humidity;BME280_pressure;Samples;Min_cycle;Max_cycle;Signal;HPM_P1;HPM_P2
2022/08/08 00:01:30;;;;;;;2.63;2.03;;;19.80;56.10;;;;;;5053835;28;20488;-57
2022/08/08 00:04:10;;;;;;;3.10;2.70;;;19.80;56.00;;;;;;5054016;28;20429;-57
2022/08/08 00:06:55;;;;;;;2.37;1.90;;;19.80;56.40;;;;;;5053680;28;20469;-57
2022/08/08 00:09:34;;;;;;;4.03;2.47;;;20.00;56.60;;;;;;5053685;28;20453;-57
2022/08/08 00:12:05;;;;;;;2.57;2.37;;;20.10;56.70;;;;;;5052967;28;20444;-57
2022/08/08 00:14:45;;;;;;;3.83;2.00;;;20.20;56.50;;;;;;5053561;28;20860;-57
2022/08/08 00:17:17;;;;;;;3.03;2.37;;;20.20;56.40;;;;;;5053266;28;20421;-57
2022/08/08 00:19:50;;;;;;;4.07;2.73;;;20.30;56.50;;;;;;5053172;28;20520;-57
2022/08/08 00:22:24;;;;;;;2.50;2.07;;;20.30;55.90;;;;;;5053638;28;20432;-57
2022/08/08 00:24:56;;;;;;;2.43;2.23;;;20.00;55.90;;;;;;5053743;28;20429;-57
2022/08/08 00:27:26;;;;;;;2.90;1.80;;;19.90;55.80;;;;;;5052981;28;20476;-57
2022/08/08 00:29:57;;;;;;;2.20;1.90;;;20.10;55.70;;;;;;5053062;28;20500;-57
2022/08/08 00:32:28;;;;;;;9.47;2.67;;;20.20;55.70;;;;;;5053468;28;20528;-57
2022/08/08 00:35:32;;;;;;;3.00;2.13;;;20.10;55.60;;;;;;5053342;28;20429;-57
2022/08/08 00:38:21;;;;;;;2.10;1.90;;;20.20;55.30;;;;;;5053265;28;20476;-57
2022/08/08 00:41:19;;;;;;;2.37;1.87;;;20.10;55.40;;;;;;5040694;28;20481;-57
2022/08/08 00:44:14;;;;;;;2.97;2.17;;;20.00;55.40;;;;;;5052831;28;20449;-56
2022/08/08 00:47:14;;;;;;;6.23;2.20;;;20.10;55.20;;;;;;5052737;28;20488;-57
2022/08/08 00:50:36;;;;;;;2.57;2.00;;;20.10;55.50;;;;;;5052992;28;21028;-57
2022/08/08 00:53:14;;;;;;;2.80;2.30;;;20.10;56.30;;;;;;5050395;28;20450;-56
2022/08/08 00:56:19;;;;;;;4.00;2.03;;;19.90;55.90;;;;;;5052728;28;20517;-56
2022/08/08 00:59:13;;;;;;;2.50;1.87;;;19.90;55.60;;;;;;5052224;28;20441;-56
2022/08/08 01:01:55;;;;;;;2.43;2.23;;;19.50;55.80;;;;;;5053124;28;20449;-56
2022/08/08 01:04:55;;;;;;;1.87;1.73;;;19.30;56.20;;;;;;5053179;28;20443;-57
2022/08/08 01:08:07;;;;;;;2.40;2.13;;;19.30;56.30;;;;;;5052582;28;20461;-56
2022/08/08 01:11:05;;;;;;;2.83;2.30;;;19.40;56.50;;;;;;5042301;28;20481;-56
2022/08/08 01:13:59;;;;;;;4.23;2.10;;;19.30;56.50;;;;;;5053260;28;20426;-57
2022/08/08 01:16:56;;;;;;;2.80;2.23;;;19.20;56.80;;;;;;5019778;28;20442;-57
2022/08/08 01:19:56;;;;;;;2.37;1.90;;;19.10;56.90;;;;;;5052532;28;20439;-57
2022/08/08 01:23:22;;;;;;;3.40;2.00;;;19.00;57.00;;;;;;5048508;28;20540;-57
2022/08/08 01:26:19;;;;;;;2.60;2.40;;;19.10;57.30;;;;;;5056513;28;20481;-57
2022/08/08 01:29:26;;;;;;;2.50;2.00;;;19.20;57.30;;;;;;5056720;28;20441;-56
2022/08/08 01:32:27;;;;;;;1.80;1.70;;;19.10;57.40;;;;;;5048014;28;20477;-55
2022/08/08 01:35:27;;;;;;;2.37;2.17;;;19.10;57.50;;;;;;5056522;28;20532;-55
2022/08/08 01:38:18;;;;;;;4.87;2.40;;;19.10;57.60;;;;;;5030912;28;20449;-56
2022/08/08 01:40:54;;;;;;;1.97;1.77;;;19.20;57.60;;;;;;5056339;28;20567;-56
2022/08/08 01:43:36;;;;;;;2.30;2.10;;;19.20;57.70;;;;;;5056520;28;20436;-55
2022/08/08 01:46:24;;;;;;;2.63;2.10;;;18.90;58.00;;;;;;5055975;28;20489;-56
2022/08/08 01:49:01;;;;;;;3.93;2.17;;;18.80;58.40;;;;;;5056071;28;20443;-57
2022/08/08 01:51:43;;;;;;;2.60;2.40;;;18.60;58.60;;;;;;5056198;28;20551;-56
2022/08/08 01:54:21;;;;;;;2.83;1.80;;;18.60;66.10;;;;;;5055828;28;20429;-55
2022/08/08 01:57:04;;;;;;;2.80;2.40;;;18.50;89.30;;;;;;5056234;28;20433;-55
2022/08/08 01:59:55;;;;;;;2.00;1.80;;;18.60;91.00;;;;;;5055871;28;20940;-56
2022/08/08 02:02:36;;;;;;;2.40;2.20;;;18.50;93.40;;;;;;5055720;28;20923;-56
2022/08/08 02:05:20;;;;;;;2.57;1.83;;;18.60;92.50;;;;;;5056081;28;20430;-55
2022/08/08 02:08:01;;;;;;;3.40;2.00;;;18.80;92.60;;;;;;5055974;28;20469;-55
2022/08/08 02:10:42;;;;;;;2.27;2.00;;;18.50;92.40;;;;;;5056026;28;20476;-55
2022/08/08 02:13:14;;;;;;;3.40;2.10;;;18.40;60.90;;;;;;5055683;28;20972;-56
2022/08/08 02:15:47;;;;;;;2.67;2.10;;;18.30;93.80;;;;;;5055553;28;20406;-56
2022/08/08 02:18:20;;;;;;;3.00;2.20;;;18.40;59.80;;;;;;5055492;28;20418;-56
2022/08/08 02:23:49;;;;;;;2.40;2.20;;;18.50;60.50;;;;;;5055355;28;20413;-55
2022/08/08 02:26:21;;;;;;;2.73;2.10;;;18.70;70.80;;;;;;5055506;28;20503;-56
2022/08/08 02:29:05;;;;;;;1.90;1.77;;;18.60;71.80;;;;;;5055330;28;20512;-56
2022/08/08 02:31:55;;;;;;;2.50;1.97;;;18.70;70.90;;;;;;5055672;28;20465;-56
2022/08/08 02:34:45;;;;;;;1.83;1.73;;;18.60;72.60;;;;;;5055089;28;20437;-56
2022/08/08 02:37:18;;;;;;;2.50;2.07;;;;;;;;;;5055343;28;20426;-56
2022/08/08 02:40:01;;;;;;;2.17;1.97;;;;;;;;;;5055332;28;20460;-55
2022/08/08 02:42:48;;;;;;;2.57;2.37;;;;;;;;;;5055376;28;20430;-56
2022/08/08 02:45:39;;;;;;;3.40;2.13;;;18.30;93.70;;;;;;5054921;28;20942;-55
2022/08/08 02:48:50;;;;;;;2.63;2.13;;;18.20;72.10;;;;;;5052500;28;20480;-56
2022/08/08 02:51:49;;;;;;;6.03;2.73;;;18.10;63.00;;;;;;5055197;28;20473;-56
2022/08/08 02:54:51;;;;;;;3.10;2.33;;;18.10;63.80;;;;;;5054918;28;20437;-56
2022/08/08 02:58:17;;;;;;;2.63;2.43;;;18.10;62.70;;;;;;5032095;28;20441;-56
2022/08/08 03:01:29;;;;;;;2.33;2.20;;;18.10;63.70;;;;;;5054660;28;20465;-56
2022/08/08 03:04:46;;;;;;;2.20;2.00;;;18.30;65.10;;;;;;5054584;28;20523;-56
2022/08/08 03:07:52;;;;;;;2.60;2.40;;;18.10;64.70;;;;;;5054511;28;20814;-55
2022/08/08 03:10:50;;;;;;;2.53;2.07;;;18.00;68.40;;;;;;5054766;28;20479;-56
2022/08/08 03:13:45;;;;;;;3.10;2.33;;;17.90;64.70;;;;;;5054524;28;20922;-56
2022/08/08 03:16:37;;;;;;;2.73;2.20;;;17.90;65.20;;;;;;5031459;28;20457;-56
2022/08/08 03:19:39;;;;;;;2.97;2.13;;;17.90;66.00;;;;;;5051309;28;20817;-56
2022/08/08 03:22:06;;;;;;;2.10;2.00;;;18.10;65.00;;;;;;5053685;28;20611;-56
2022/08/08 03:24:34;;;;;;;3.10;2.17;;;18.20;65.00;;;;;;5054330;28;20524;-56
2022/08/08 03:27:19;;;;;;;2.43;2.20;;;18.30;65.20;;;;;;5054072;28;20483;-56
2022/08/08 03:29:52;;;;;;;2.70;2.47;;;18.30;64.60;;;;;;5053939;28;20440;-57
2022/08/08 03:35:05;;;;;;;3.50;2.13;;;18.40;65.60;;;;;;5054112;28;20448;-56
2022/08/08 03:37:35;;;;;;;2.40;2.20;;;18.50;64.00;;;;;;5053511;28;20454;-56
2022/08/08 03:40:05;;;;;;;2.30;2.10;;;18.50;65.90;;;;;;5053963;28;20453;-55
2022/08/08 03:42:33;;;;;;;4.20;2.37;;;18.70;62.80;;;;;;5054062;28;20433;-56
2022/08/08 03:45:00;;;;;;;2.50;2.30;;;18.60;63.30;;;;;;5053750;28;21012;-56
2022/08/08 03:47:27;;;;;;;13.47;2.83;;;18.60;63.70;;;;;;5052643;28;20675;-56
2022/08/08 03:49:54;;;;;;;3.33;2.50;;;18.50;64.40;;;;;;5053816;28;20465;-56
2022/08/08 03:52:22;;;;;;;2.90;2.63;;;18.50;65.60;;;;;;5053478;28;20452;-56
2022/08/08 03:54:49;;;;;;;3.20;2.83;;;18.40;66.00;;;;;;5053942;28;20461;-56
2022/08/08 03:57:18;;;;;;;4.77;2.47;;;18.40;67.10;;;;;;5053817;28;20452;-56
2022/08/08 03:59:45;;;;;;;2.97;2.67;;;18.30;67.50;;;;;;5053386;28;21000;-56
2022/08/08 04:02:18;;;;;;;5.00;2.80;;;18.20;67.90;;;;;;5053861;28;20445;-56
2022/08/08 04:04:46;;;;;;;4.90;3.70;;;18.00;68.50;;;;;;5053368;28;20879;-56
2022/08/08 04:07:13;;;;;;;3.10;2.60;;;18.00;69.30;;;;;;5053211;28;20487;-56
2022/08/08 04:09:40;;;;;;;3.40;2.70;;;18.10;70.30;;;;;;5053409;28;20464;-56
2022/08/08 04:12:08;;;;;;;2.90;2.70;;;18.10;70.50;;;;;;5053567;28;20446;-56
2022/08/08 04:14:36;;;;;;;4.33;2.70;;;18.10;70.40;;;;;;5053499;28;20445;-56
2022/08/08 04:17:04;;;;;;;3.53;3.20;;;18.10;70.70;;;;;;5053346;28;20925;-56
2022/08/08 04:19:31;;;;;;;4.90;3.10;;;18.20;70.80;;;;;;5053508;28;20449;-56
2022/08/08 04:21:58;;;;;;;7.00;3.10;;;18.20;71.00;;;;;;5052991;28;20473;-56
2022/08/08 04:24:25;;;;;;;4.30;2.90;;;18.20;71.60;;;;;;5053624;28;20543;-56
2022/08/08 04:26:52;;;;;;;4.13;3.00;;;18.10;71.80;;;;;;5053344;28;20481;-56
2022/08/08 04:29:20;;;;;;;4.10;3.70;;;18.20;72.00;;;;;;5053269;28;20452;-56
2022/08/08 04:31:48;;;;;;;7.10;3.50;;;18.10;71.70;;;;;;5053311;28;20473;-56
2022/08/08 04:34:15;;;;;;;4.03;3.00;;;18.00;72.90;;;;;;5053502;28;20503;-55
2022/08/08 04:36:43;;;;;;;4.93;3.10;;;17.90;73.80;;;;;;5053230;28;20524;-56
2022/08/08 04:39:10;;;;;;;3.43;3.13;;;17.90;74.40;;;;;;5052899;28;20488;-55
2022/08/08 04:41:37;;;;;;;3.63;3.33;;;17.90;75.10;;;;;;5053358;28;20476;-56
2022/08/08 04:44:05;;;;;;;5.27;3.87;;;18.00;75.60;;;;;;5052984;28;20945;-56
2022/08/08 04:46:32;;;;;;;10.90;3.50;;;18.00;76.20;;;;;;5052535;28;20560;-56
2022/08/08 04:49:01;;;;;;;6.50;3.33;;;18.00;75.80;;;;;;5052888;28;21013;-56
2022/08/08 04:51:28;;;;;;;4.57;3.17;;;17.80;77.00;;;;;;5052634;28;20519;-56
2022/08/08 04:53:55;;;;;;;5.57;3.60;;;17.70;78.20;;;;;;5052953;28;20446;-56
2022/08/08 04:56:23;;;;;;;3.87;3.30;;;17.80;78.40;;;;;;5053179;28;20531;-56
2022/08/08 04:58:50;;;;;;;5.47;4.27;;;17.70;79.10;;;;;;5056237;28;20473;-56
2022/08/08 05:01:17;;;;;;;8.70;4.00;;;17.90;80.10;;;;;;5056976;28;20551;-56
2022/08/08 05:03:45;;;;;;;5.87;3.80;;;17.90;79.40;;;;;;5057052;28;20441;-56
2022/08/08 05:06:14;;;;;;;4.80;3.30;;;18.00;80.20;;;;;;5057104;28;20459;-56
2022/08/08 05:08:41;;;;;;;3.67;3.10;;;18.10;80.40;;;;;;5056921;28;20485;-56
2022/08/08 05:11:12;;;;;;;4.47;3.50;;;18.10;79.90;;;;;;5057334;28;20473;-56
2022/08/08 05:13:39;;;;;;;4.67;3.70;;;18.10;80.20;;;;;;5057146;28;20444;-56
2022/08/08 05:16:07;;;;;;;4.90;3.90;;;18.20;80.70;;;;;;5056729;28;20556;-56
2022/08/08 05:18:35;;;;;;;5.97;4.33;;;18.20;80.80;;;;;;5056642;28;20449;-56
2022/08/08 05:21:03;;;;;;;5.20;3.63;;;18.10;80.00;;;;;;5056480;28;20516;-56
2022/08/08 05:23:32;;;;;;;5.07;3.37;;;18.20;81.10;;;;;;5056490;28;20545;-56
2022/08/08 05:25:59;;;;;;;5.30;3.43;;;18.20;81.20;;;;;;5056454;28;20849;-56
2022/08/08 05:28:26;;;;;;;11.70;3.77;;;18.30;82.00;;;;;;5056602;28;20485;-56
2022/08/08 05:30:54;;;;;;;5.10;3.63;;;18.40;80.80;;;;;;5056506;28;20468;-56
2022/08/08 05:33:21;;;;;;;5.10;4.60;;;18.40;81.40;;;;;;5055970;28;20444;-56
2022/08/08 05:35:49;;;;;;;6.00;3.80;;;18.50;82.10;;;;;;5056551;28;20448;-56
2022/08/08 05:38:18;;;;;;;4.53;3.57;;;18.50;82.10;;;;;;5056257;28;20480;-56
2022/08/08 05:40:49;;;;;;;4.17;3.43;;;18.60;81.60;;;;;;5056113;28;20513;-56
2022/08/08 05:43:23;;;;;;;4.57;3.40;;;18.50;79.70;;;;;;5055608;28;20517;-56
2022/08/08 05:45:52;;;;;;;6.80;3.50;;;18.60;77.80;;;;;;5055984;28;20906;-55
2022/08/08 05:48:19;;;;;;;6.30;3.57;;;18.70;80.40;;;;;;5056082;28;20497;-56
2022/08/08 05:50:47;;;;;;;4.47;2.90;;;18.70;78.40;;;;;;5055976;28;20501;-56
2022/08/08 05:53:15;;;;;;;4.57;4.03;;;18.80;80.00;;;;;;5055458;28;20830;-56
2022/08/08 05:55:44;;;;;;;6.37;3.10;;;18.90;79.30;;;;;;5055851;28;20445;-56
2022/08/08 05:58:13;;;;;;;4.20;3.50;;;18.90;80.30;;;;;;5055616;28;20533;-55
2022/08/08 06:00:45;;;;;;;5.47;2.97;;;19.00;78.70;;;;;;5055326;28;21063;-56
2022/08/08 06:03:16;;;;;;;4.43;3.07;;;19.10;94.60;;;;;;5055912;28;20433;-55
2022/08/08 06:05:48;;;;;;;4.80;3.00;;;19.10;78.40;;;;;;5055732;28;20453;-55
2022/08/08 06:08:18;;;;;;;3.80;2.90;;;19.20;79.40;;;;;;5055318;28;20472;-55
2022/08/08 06:10:47;;;;;;;3.77;3.30;;;19.40;79.60;;;;;;5054979;28;20487;-55
2022/08/08 06:13:17;;;;;;;6.10;4.03;;;19.50;80.30;;;;;;5055086;28;20449;-56
2022/08/08 06:15:47;;;;;;;3.17;2.97;;;19.50;79.90;;;;;;5055119;28;20503;-55
2022/08/08 06:18:15;;;;;;;3.60;3.23;;;19.70;78.60;;;;;;5055135;28;20958;-56
2022/08/08 06:20:43;;;;;;;3.50;3.20;;;20.60;76.00;;;;;;5055601;28;20476;-57
2022/08/08 06:23:10;;;;;;;4.47;3.30;;;20.50;78.30;;;;;;5054802;28;20536;-56
2022/08/08 06:25:41;;;;;;;4.50;3.27;;;20.40;78.30;;;;;;5054827;28;20536;-55
2022/08/08 06:28:15;;;;;;;3.83;3.30;;;20.30;78.00;;;;;;5055118;28;21063;-56
2022/08/08 06:30:45;;;;;;;4.73;2.83;;;20.20;77.80;;;;;;5055186;28;20465;-56
2022/08/08 06:33:13;;;;;;;4.30;3.90;;;20.10;77.10;;;;;;5054958;28;20942;-56
2022/08/08 06:35:46;;;;;;;4.07;3.50;;;20.10;77.90;;;;;;5055036;28;20646;-56
2022/08/08 06:38:19;;;;;;;3.40;3.10;;;20.10;78.00;;;;;;5055237;28;20475;-56
2022/08/08 06:40:50;;;;;;;4.10;3.53;;;20.30;79.00;;;;;;5055307;28;20481;-56
2022/08/08 06:43:20;;;;;;;5.20;3.50;;;20.60;79.00;;;;;;5054655;28;20434;-56
2022/08/08 06:45:50;;;;;;;7.20;3.57;;;20.60;79.10;;;;;;5054786;28;20563;-56
2022/08/08 06:48:17;;;;;;;3.90;3.27;;;20.60;79.10;;;;;;5055039;28;20491;-56
2022/08/08 06:50:45;;;;;;;3.47;3.10;;;20.60;79.60;;;;;;5054601;28;20551;-56
2022/08/08 06:53:12;;;;;;;3.73;3.17;;;20.50;79.80;;;;;;5054812;28;20455;-56
2022/08/08 06:55:40;;;;;;;3.80;3.20;;;20.70;78.00;;;;;;5055069;28;20533;-55
2022/08/08 06:58:07;;;;;;;4.40;3.80;;;20.90;78.50;;;;;;5054489;28;20445;-55
2022/08/08 07:00:39;;;;;;;4.80;3.47;;;21.00;79.40;;;;;;5054175;28;20561;-55
2022/08/08 07:03:26;;;;;;;4.27;3.77;;;21.10;78.90;;;;;;5054604;28;20421;-55
2022/08/08 07:05:55;;;;;;;3.13;2.93;;;20.90;79.30;;;;;;5054176;28;20853;-55
2022/08/08 07:08:29;;;;;;;3.63;3.30;;;21.00;79.60;;;;;;5054414;28;20572;-56
2022/08/08 07:10:59;;;;;;;3.50;3.20;;;20.90;79.70;;;;;;5054238;28;21060;-55
2022/08/08 07:13:33;;;;;;;4.97;4.47;;;21.00;80.60;;;;;;5054466;28;20430;-55
2022/08/08 07:16:04;;;;;;;7.63;4.30;;;21.00;80.50;;;;;;5054328;28;20879;-55
2022/08/08 07:18:40;;;;;;;3.97;3.60;;;21.20;80.40;;;;;;5054098;28;20898;-55
2022/08/08 07:21:09;;;;;;;4.13;3.77;;;21.30;81.70;;;;;;5054022;28;20473;-55
2022/08/08 07:23:43;;;;;;;4.70;3.40;;;21.30;82.10;;;;;;5054008;28;20484;-55
2022/08/08 07:26:12;;;;;;;3.73;3.20;;;21.40;81.50;;;;;;5054009;28;20908;-55
2022/08/08 07:28:41;;;;;;;4.00;3.70;;;21.40;81.50;;;;;;5053828;28;20485;-55
2022/08/08 07:31:09;;;;;;;4.63;3.47;;;21.50;81.40;;;;;;5054179;28;20560;-56
2022/08/08 07:33:40;;;;;;;4.03;3.33;;;21.80;77.90;;;;;;5054206;28;20525;-56
2022/08/08 07:36:09;;;;;;;3.60;3.13;;;22.20;77.80;;;;;;5054241;28;20434;-55
2022/08/08 07:38:37;;;;;;;3.63;3.33;;;22.30;78.50;;;;;;5053994;28;20532;-55
2022/08/08 07:41:06;;;;;;;3.67;3.33;;;22.40;78.30;;;;;;5054107;28;20568;-55
2022/08/08 07:43:34;;;;;;;5.30;2.80;;;22.40;80.00;;;;;;5053928;28;20536;-56
2022/08/08 07:46:01;;;;;;;4.53;4.13;;;22.50;80.40;;;;;;5053795;28;20539;-55
2022/08/08 07:48:29;;;;;;;3.67;3.37;;;22.60;79.60;;;;;;5053825;28;20485;-56
2022/08/08 07:50:59;;;;;;;6.37;3.90;;;22.70;80.20;;;;;;5053634;28;20461;-55
2022/08/08 07:53:34;;;;;;;4.10;3.30;;;22.70;79.70;;;;;;5053757;28;20468;-56
2022/08/08 07:56:03;;;;;;;4.00;3.70;;;22.90;78.50;;;;;;5053923;28;20604;-55
2022/08/08 07:58:32;;;;;;;4.67;3.50;;;;;;;;;;5053748;28;20800;-55
2022/08/08 08:01:04;;;;;;;8.17;3.60;;;24.10;76.60;;;;;;5053524;28;20474;-55
2022/08/08 08:03:35;;;;;;;3.90;3.10;;;25.10;73.60;;;;;;5053515;28;20516;-56
2022/08/08 08:06:06;;;;;;;4.73;4.33;;;26.10;71.20;;;;;;5053569;28;20484;-55
2022/08/08 08:08:37;;;;;;;5.33;3.90;;;;;;;;;;5053010;28;20498;-56
2022/08/08 08:11:11;;;;;;;4.20;3.63;;;27.30;68.20;;;;;;5053506;28;20477;-57
2022/08/08 08:13:46;;;;;;;4.57;3.70;;;27.60;66.80;;;;;;5053161;28;20520;-56
2022/08/08 08:16:18;;;;;;;4.90;4.13;;;27.70;66.90;;;;;;5053191;28;20513;-56
2022/08/08 08:18:47;;;;;;;4.00;3.70;;;28.00;65.20;;;;;;5053387;28;20422;-56
2022/08/08 08:21:17;;;;;;;4.60;4.20;;;28.10;65.10;;;;;;5053068;28;20473;-56
2022/08/08 08:23:44;;;;;;;3.70;3.40;;;28.30;63.70;;;;;;5052896;28;20619;-56
2022/08/08 08:26:12;;;;;;;10.40;3.70;;;28.70;63.10;;;;;;5053376;28;20814;-56
2022/08/08 08:28:40;;;;;;;4.57;3.70;;;28.60;61.60;;;;;;5052752;28;20473;-57
2022/08/08 08:31:07;;;;;;;6.30;3.40;;;29.10;61.90;;;;;;5052784;28;20552;-57
2022/08/08 08:33:34;;;;;;;2.90;2.70;;;29.20;61.70;;;;;;5052255;28;20441;-57
2022/08/08 08:36:03;;;;;;;4.00;3.60;;;29.30;60.00;;;;;;5053025;28;20528;-56
2022/08/08 08:38:32;;;;;;;3.70;3.30;;;29.30;60.10;;;;;;5053046;28;20511;-56
2022/08/08 08:41:00;;;;;;;4.00;3.70;;;28.80;60.20;;;;;;5052855;28;20564;-56
2022/08/08 08:43:28;;;;;;;3.70;3.40;;;29.50;61.40;;;;;;5052912;28;20546;-56
2022/08/08 08:45:56;;;;;;;6.73;3.40;;;29.80;59.50;;;;;;5052613;28;20477;-56
2022/08/08 08:48:23;;;;;;;4.00;3.60;;;29.80;59.50;;;;;;5052868;28;20469;-55
2022/08/08 08:50:53;;;;;;;5.13;3.50;;;29.70;58.90;;;;;;5052797;28;20818;-55
2022/08/08 08:53:21;;;;;;;3.47;3.17;;;29.00;58.90;;;;;;5052508;28;20536;-56
2022/08/08 08:55:50;;;;;;;3.67;3.37;;;29.40;59.40;;;;;;5053024;28;20449;-55
2022/08/08 08:58:25;;;;;;;4.97;2.60;;;29.80;58.30;;;;;;5052901;28;20885;-55
2022/08/08 09:00:53;;;;;;;3.83;3.50;;;30.00;58.20;;;;;;5052634;28;20472;-56
2022/08/08 09:03:22;;;;;;;4.80;3.40;;;30.30;57.30;;;;;;5052757;28;20491;-56
2022/08/08 09:05:50;;;;;;;4.37;3.70;;;30.00;57.90;;;;;;5052533;28;20655;-55
2022/08/08 09:08:20;;;;;;;3.53;2.90;;;30.60;57.10;;;;;;5052703;28;20484;-55
2022/08/08 09:10:49;;;;;;;3.77;3.37;;;31.00;56.20;;;;;;5052540;28;20519;-56
2022/08/08 09:13:18;;;;;;;3.13;2.80;;;30.10;56.50;;;;;;5051919;28;20449;-56
2022/08/08 09:15:45;;;;;;;4.00;3.37;;;30.00;56.10;;;;;;5052532;28;20837;-56
2022/08/08 09:18:16;;;;;;;3.23;2.93;;;30.20;56.00;;;;;;5052367;28;20536;-55
2022/08/08 09:20:44;;;;;;;4.00;3.20;;;30.30;55.70;;;;;;5052215;28;20473;-55
2022/08/08 09:23:13;;;;;;;3.47;2.60;;;30.50;55.40;;;;;;5052243;28;20440;-55
2022/08/08 09:25:45;;;;;;;2.77;2.53;;;31.40;54.70;;;;;;5052403;28;20500;-55
2022/08/08 09:28:15;;;;;;;5.40;3.10;;;31.40;54.00;;;;;;5052384;28;20440;-55
2022/08/08 09:30:44;;;;;;;3.00;2.80;;;31.50;54.80;;;;;;5052314;28;20689;-55
2022/08/08 09:33:13;;;;;;;3.13;2.93;;;32.00;53.60;;;;;;5052607;28;20838;-55
2022/08/08 09:35:45;;;;;;;3.13;2.83;;;31.30;53.00;;;;;;5051955;28;20451;-55
2022/08/08 09:38:23;;;;;;;3.13;2.93;;;31.30;53.20;;;;;;5052214;28;20434;-55
2022/08/08 09:40:56;;;;;;;6.03;3.00;;;31.10;53.40;;;;;;5052766;28;20457;-55
2022/08/08 09:43:29;;;;;;;2.77;2.57;;;31.70;53.70;;;;;;5052125;28;20515;-55
2022/08/08 09:46:00;;;;;;;2.77;2.40;;;32.30;51.90;;;;;;5055160;28;20480;-55
2022/08/08 09:48:31;;;;;;;3.00;2.70;;;32.60;50.20;;;;;;5055801;28;20468;-55
2022/08/08 09:50:58;;;;;;;2.73;2.53;;;31.50;50.70;;;;;;5055667;28;20484;-55
2022/08/08 09:53:34;;;;;;;2.40;2.20;;;31.50;51.20;;;;;;5055750;28;20449;-55
2022/08/08 09:56:03;;;;;;;5.20;2.60;;;32.10;51.30;;;;;;5055902;28;20437;-55
2022/08/08 09:58:39;;;;;;;2.60;2.20;;;31.90;49.60;;;;;;5055702;28;20441;-56
2022/08/08 10:01:08;;;;;;;2.83;2.50;;;32.10;49.90;;;;;;5055628;28;20961;-56
2022/08/08 10:03:37;;;;;;;2.87;2.53;;;32.40;49.30;;;;;;5055882;28;20941;-56
2022/08/08 10:06:14;;;;;;;2.50;2.30;;;31.60;49.70;;;;;;5055652;28;20933;-55
2022/08/08 10:08:45;;;;;;;2.87;2.67;;;31.80;49.60;;;;;;5055723;28;20551;-55
2022/08/08 10:11:16;;;;;;;2.67;2.43;;;32.20;49.20;;;;;;5055811;28;20481;-55
2022/08/08 10:13:54;;;;;;;2.87;2.67;;;32.60;49.30;;;;;;5055676;28;20457;-55
2022/08/08 10:16:22;;;;;;;3.27;2.97;;;33.30;49.20;;;;;;5055902;28;20811;-56
2022/08/08 10:18:49;;;;;;;2.70;2.50;;;32.50;48.90;;;;;;5055506;28;20917;-55
2022/08/08 10:21:19;;;;;;;2.60;2.40;;;32.80;49.70;;;;;;5055709;28;20469;-55
2022/08/08 10:23:48;;;;;;;3.03;2.83;;;32.40;50.00;;;;;;5055507;28;20441;-55
2022/08/08 10:26:20;;;;;;;2.47;2.27;;;32.50;49.10;;;;;;5055107;28;20453;-55
2022/08/08 10:28:56;;;;;;;7.73;2.90;;;32.60;49.50;;;;;;5055008;28;20996;-55
2022/08/08 10:34:19;;;;;;;2.70;2.50;;;32.70;49.70;;;;;;5029370;28;20421;-55
2022/08/08 10:36:47;;;;;;;3.87;3.23;;;32.80;48.80;;;;;;5055278;28;20448;-56
2022/08/08 10:39:19;;;;;;;2.77;2.57;;;32.50;48.80;;;;;;5055236;28;20441;-59
2022/08/08 10:41:55;;;;;;;2.97;2.77;;;32.30;49.60;;;;;;5055251;28;20480;-55
2022/08/08 10:44:32;;;;;;;2.90;2.70;;;31.30;50.90;;;;;;5055109;28;20509;-55
2022/08/08 10:47:09;;;;;;;3.60;3.30;;;30.60;51.50;;;;;;5054836;28;20472;-55
2022/08/08 10:49:36;;;;;;;2.83;2.63;;;30.00;51.70;;;;;;5054493;28;20559;-55
2022/08/08 10:52:04;;;;;;;3.77;2.70;;;29.90;52.40;;;;;;5055004;28;20813;-55
2022/08/08 10:54:31;;;;;;;3.03;2.70;;;30.80;51.20;;;;;;5054381;28;20449;-56
2022/08/08 10:56:58;;;;;;;2.83;2.63;;;;;;;;;;5054210;28;20539;-55
2022/08/08 10:59:27;;;;;;;2.70;2.50;;;32.30;49.60;;;;;;5055084;28;20449;-55
2022/08/08 11:01:55;;;;;;;3.80;2.50;;;32.20;49.50;;;;;;5054337;28;20465;-55
2022/08/08 11:04:22;;;;;;;8.20;2.57;;;32.80;49.60;;;;;;5054572;28;20448;-56
2022/08/08 11:06:59;;;;;;;3.50;2.30;;;;;;;;;;5054403;28;20495;-55
2022/08/08 11:09:26;;;;;;;3.53;3.00;;;33.70;48.20;;;;;;5054339;28;20493;-55
2022/08/08 11:11:54;;;;;;;4.33;2.93;;;33.90;47.70;;;;;;5054494;28;20464;-55
2022/08/08 11:14:21;;;;;;;2.77;2.57;;;33.60;47.70;;;;;;5054346;28;20449;-55
2022/08/08 11:16:50;;;;;;;2.60;2.40;;;33.60;47.30;;;;;;5054662;28;20477;-56
2022/08/08 11:19:18;;;;;;;2.40;2.20;;;33.40;47.50;;;;;;5054185;28;20502;-55
2022/08/08 11:21:48;;;;;;;3.00;2.60;;;33.10;47.50;;;;;;5054025;28;20515;-55
2022/08/08 11:24:15;;;;;;;2.50;2.30;;;33.40;46.80;;;;;;5053854;28;20441;-55
2022/08/08 11:26:44;;;;;;;2.57;2.37;;;34.30;46.20;;;;;;5054392;28;20445;-55
2022/08/08 11:29:13;;;;;;;2.40;2.20;;;34.60;45.90;;;;;;5054150;28;20965;-55
2022/08/08 11:31:47;;;;;;;2.60;2.40;;;33.60;45.10;;;;;;5053939;28;20555;-55
2022/08/08 11:34:16;;;;;;;2.73;2.00;;;33.40;45.10;;;;;;5054040;28;20487;-55
2022/08/08 11:36:44;;;;;;;2.80;1.90;;;33.00;45.20;;;;;;5054233;28;20449;-55
2022/08/08 11:39:14;;;;;;;2.60;2.40;;;32.40;46.40;;;;;;5053397;28;20445;-56
2022/08/08 11:41:43;;;;;;;2.47;2.20;;;32.30;46.20;;;;;;5053850;28;20527;-55
2022/08/08 11:44:13;;;;;;;4.30;2.40;;;32.40;46.10;;;;;;5054212;28;20477;-55
2022/08/08 11:46:41;;;;;;;2.70;2.27;;;32.60;46.30;;;;;;5053259;28;20477;-55
2022/08/08 11:49:11;;;;;;;3.27;2.27;;;32.90;44.70;;;;;;5053290;28;20535;-55
2022/08/08 11:51:40;;;;;;;2.40;2.20;;;32.80;44.40;;;;;;5053393;28;20898;-56
2022/08/08 11:54:08;;;;;;;2.30;2.10;;;32.60;44.80;;;;;;5052926;28;20933;-56
2022/08/08 11:56:37;;;;;;;2.60;2.40;;;32.70;44.90;;;;;;5053285;28;20933;-56
2022/08/08 11:59:07;;;;;;;3.40;2.30;;;32.60;45.50;;;;;;5053456;28;20942;-55
2022/08/08 12:01:35;;;;;;;2.90;2.43;;;32.40;44.50;;;;;;5053486;28;20468;-55
2022/08/08 12:04:03;;;;;;;2.20;2.00;;;32.60;44.80;;;;;;5053517;28;20893;-55
2022/08/08 12:06:31;;;;;;;2.30;2.07;;;32.80;44.70;;;;;;5052785;28;20479;-55
2022/08/08 12:09:07;;;;;;;2.47;2.27;;;32.80;44.70;;;;;;5052834;28;20455;-55
2022/08/08 12:11:42;;;;;;;2.13;2.00;;;32.70;44.50;;;;;;5053207;28;20973;-56
2022/08/08 12:14:10;;;;;;;3.77;2.40;;;32.60;44.20;;;;;;5052841;28;21021;-56
2022/08/08 12:16:47;;;;;;;2.87;2.20;;;32.90;44.40;;;;;;5053174;28;20453;-56
2022/08/08 12:19:20;;;;;;;4.10;2.10;;;32.60;43.80;;;;;;5053273;28;20500;-56
2022/08/08 12:21:48;;;;;;;3.07;2.23;;;32.60;44.00;;;;;;5052712;28;20992;-56
2022/08/08 12:24:19;;;;;;;4.80;2.37;;;32.30;44.30;;;;;;5052864;28;20812;-56
2022/08/08 12:26:48;;;;;;;2.10;2.00;;;32.60;43.70;;;;;;5053203;28;20479;-56
2022/08/08 12:29:24;;;;;;;3.50;2.20;;;32.40;44.10;;;;;;5053326;28;20515;-56
2022/08/08 12:32:02;;;;;;;2.13;1.93;;;32.50;44.50;;;;;;5052786;28;20465;-56
2022/08/08 12:34:41;;;;;;;2.00;1.90;;;32.70;43.70;;;;;;5052801;28;20792;-56
2022/08/08 12:37:11;;;;;;;4.63;2.20;;;32.70;43.30;;;;;;5052864;28;20429;-56
2022/08/08 12:39:40;;;;;;;2.20;1.90;;;33.50;44.40;;;;;;5052604;28;20456;-56
2022/08/08 12:42:07;;;;;;;2.10;2.00;;;34.10;44.00;;;;;;5053050;28;20500;-56
2022/08/08 12:44:35;;;;;;;2.40;2.20;;;34.00;43.30;;;;;;5052424;28;20453;-56
2022/08/08 12:47:04;;;;;;;3.13;2.30;;;33.10;43.90;;;;;;5052452;28;20977;-56
2022/08/08 12:49:34;;;;;;;5.00;2.00;;;32.80;44.40;;;;;;5052543;28;20492;-55
2022/08/08 12:52:02;;;;;;;2.37;2.17;;;32.70;44.30;;;;;;5052461;28;20449;-56
2022/08/08 12:54:32;;;;;;;2.60;2.17;;;32.10;44.40;;;;;;5052095;28;20994;-55
2022/08/08 12:57:12;;;;;;;3.00;2.50;;;32.00;44.50;;;;;;5052797;28;20451;-55
2022/08/08 12:59:50;;;;;;;3.70;2.23;;;32.50;44.80;;;;;;5052508;28;20483;-56
2022/08/08 13:02:24;;;;;;;2.90;2.70;;;32.80;44.30;;;;;;5052654;28;20528;-55
2022/08/08 13:04:52;;;;;;;7.63;3.10;;;32.80;43.80;;;;;;5052452;28;20429;-56
2022/08/08 13:07:20;;;;;;;2.43;2.20;;;32.80;44.10;;;;;;5052274;28;20467;-56
2022/08/08 13:09:58;;;;;;;2.50;2.30;;;32.80;43.80;;;;;;5052593;28;20485;-55
2022/08/08 13:12:28;;;;;;;2.40;2.00;;;33.30;44.50;;;;;;5052571;28;21004;-56
2022/08/08 13:14:56;;;;;;;6.00;2.63;;;32.70;43.50;;;;;;5052259;28;20516;-55
2022/08/08 13:17:26;;;;;;;2.70;2.50;;;32.50;43.70;;;;;;5052739;28;20540;-55
2022/08/08 13:19:54;;;;;;;2.43;2.20;;;32.60;44.40;;;;;;5055350;28;20877;-55
2022/08/08 13:22:21;;;;;;;2.77;2.57;;;32.40;43.70;;;;;;5056436;28;20445;-56
2022/08/08 13:24:49;;;;;;;2.50;2.17;;;32.80;43.20;;;;;;5056303;28;20539;-56
2022/08/08 13:27:17;;;;;;;2.47;2.10;;;32.80;43.40;;;;;;5056451;28;20451;-56
2022/08/08 13:29:54;;;;;;;2.20;2.00;;;32.80;43.80;;;;;;5056431;28;20584;-56
2022/08/08 13:32:22;;;;;;;1.93;1.83;;;32.50;43.20;;;;;;5056220;28;20834;-55